sensor_id;sensor_type;location;lat;lon;timestamp;P1;durP1;ratioP1;P2;durP2;ratioP2
35907;SDS011;22003;50.320;8.054;2023-05-07T04:01:46;5.80;;;3.53;;
35907;SDS011;22003;50.320;8.054;2023-05-07T04:04:12;5.85;;;3.60;;
35907;SDS011;22003;50.320;8.054;2023-05-07T04:06:37;7.93;;;3.47;;
35907;SDS011;22003;50.320;8.054;2023-05-07T04:09:02;6.40;;;3.97;;
35907;SDS011;22003;50.320;8.054;2023-05-07T04:11:27;3.42;;;3.03;;
35907;SDS011;22003;50.320;8.054;2023-05-07T04:13:53;4.80;;;3.35;;
35907;SDS011;22003;50.320;8.054;2023-05-07T04:16:18;5.55;;;3.60;;
35907;SDS011;22003;50.320;8.054;2023-05-07T04:18:43;6.25;;;3.60;;
35907;SDS011;22003;50.320;8.054;2023-05-07T04:21:15;7.72;;;3.95;;
35907;SDS011;22003;50.320;8.054;2023-05-07T04:23:42;4.63;;;3.63;;
35907;SDS011;22003;50.320;8.054;2023-05-07T04:26:07;5.68;;;3.70;;
35907;SDS011;22003;50.320;8.054;2023-05-07T04:28:33;3.60;;;3.00;;
35907;SDS011;22003;50.320;8.054;2023-05-07T04:30:59;7.35;;;3.53;;
35907;SDS011;22003;50.320;8.054;2023-05-07T04:33:24;4.60;;;3.30;;
35907;SDS011;22003;50.320;8.054;2023-05-07T04:35:50;3.88;;;3.42;;
35907;SDS011;22003;50.320;8.054;2023-05-07T04:38:15;5.68;;;3.58;;
35907;SDS011;22003;50.320;8.054;2023-05-07T04:40:41;5.70;;;3.53;;
35907;SDS011;22003;50.320;8.054;2023-05-07T04:43:07;8.10;;;3.47;;
35907;SDS011;22003;50.320;8.054;2023-05-07T04:45:34;4.53;;;3.40;;
35907;SDS011;22003;50.320;8.054;2023-05-07T04:47:59;6.03;;;3.80;;
35907;SDS011;22003;50.320;8.054;2023-05-07T04:50:24;5.63;;;3.58;;
35907;SDS011;22003;50.320;8.054;2023-05-07T04:52:50;4.50;;;3.28;;
35907;SDS011;22003;50.320;8.054;2023-05-07T04:55:16;6.32;;;4.20;;
35907;SDS011;22003;50.320;8.054;2023-05-07T04:57:41;5.40;;;3.55;;
35907;SDS011;22003;50.320;8.054;2023-05-07T05:00:06;5.28;;;3.42;;
35907;SDS011;22003;50.320;8.054;2023-05-07T05:02:33;4.18;;;3.30;;
35907;SDS011;22003;50.320;8.054;2023-05-07T05:04:59;5.00;;;3.17;;
35907;SDS011;22003;50.320;8.054;2023-05-07T05:07:24;4.55;;;3.08;;
35907;SDS011;22003;50.320;8.054;2023-05-07T05:09:50;5.47;;;3.60;;
35907;SDS011;22003;50.320;8.054;2023-05-07T05:12:15;5.85;;;3.47;;
35907;SDS011;22003;50.320;8.054;2023-05-07T05:14:40;4.75;;;3.33;;
35907;SDS011;22003;50.320;8.054;2023-05-07T05:17:05;2.97;;;2.67;;
35907;SDS011;22003;50.320;8.054;2023-05-07T05:19:31;4.70;;;2.85;;
35907;SDS011;22003;50.320;8.054;2023-05-07T05:21:56;4.53;;;3.28;;
35907;SDS011;22003;50.320;8.054;2023-05-07T05:24:21;5.45;;;3.13;;
35907;SDS011;22003;50.320;8.054;2023-05-07T05:26:46;3.60;;;2.70;;
35907;SDS011;22003;50.320;8.054;2023-05-07T05:29:12;3.65;;;2.72;;
35907;SDS011;22003;50.320;8.054;2023-05-07T05:31:37;5.75;;;2.97;;
35907;SDS011;22003;50.320;8.054;2023-05-07T05:34:02;5.70;;;3.60;;
35907;SDS011;22003;50.320;8.054;2023-05-07T05:36:27;4.18;;;3.40;;
35907;SDS011;22003;50.320;8.054;2023-05-07T05:38:53;7.63;;;4.10;;
35907;SDS011;22003;50.320;8.054;2023-05-07T05:41:18;4.93;;;3.42;;
35907;SDS011;22003;50.320;8.054;2023-05-07T05:43:43;5.10;;;3.70;;
35907;SDS011;22003;50.320;8.054;2023-05-07T05:46:08;4.28;;;3.50;;
35907;SDS011;22003;50.320;8.054;2023-05-07T05:51:01;5.10;;;3.17;;
35907;SDS011;22003;50.320;8.054;2023-05-07T05:53:27;5.10;;;3.58;;
35907;SDS011;22003;50.320;8.054;2023-05-07T05:55:52;5.40;;;3.47;;
35907;SDS011;22003;50.320;8.054;2023-05-07T05:58:17;6.78;;;3.10;;
35907;SDS011;22003;50.320;8.054;2023-05-07T06:00:43;4.25;;;3.50;;
35907;SDS011;22003;50.320;8.054;2023-05-07T06:03:09;4.60;;;3.40;;
35907;SDS011;22003;50.320;8.054;2023-05-07T06:05:35;4.13;;;3.38;;
35907;SDS011;22003;50.320;8.054;2023-05-07T06:08:00;4.65;;;3.70;;
35907;SDS011;22003;50.320;8.054;2023-05-07T06:10:25;5.30;;;3.60;;
35907;SDS011;22003;50.320;8.054;2023-05-07T06:12:52;8.02;;;3.95;;
35907;SDS011;22003;50.320;8.054;2023-05-07T06:15:17;4.28;;;3.25;;
35907;SDS011;22003;50.320;8.054;2023-05-07T06:17:42;6.00;;;3.42;;
35907;SDS011;22003;50.320;8.054;2023-05-07T06:20:07;5.00;;;3.60;;
35907;SDS011;22003;50.320;8.054;2023-05-07T06:22:33;9.32;;;3.35;;
35907;SDS011;22003;50.320;8.054;2023-05-07T06:24:58;4.47;;;3.38;;
35907;SDS011;22003;50.320;8.054;2023-05-07T06:27:23;5.68;;;3.53;;
35907;SDS011;22003;50.320;8.054;2023-05-07T06:29:49;5.65;;;4.03;;
35907;SDS011;22003;50.320;8.054;2023-05-07T06:32:14;5.68;;;3.38;;
35907;SDS011;22003;50.320;8.054;2023-05-07T06:34:40;3.85;;;3.42;;
35907;SDS011;22003;50.320;8.054;2023-05-07T06:37:06;6.00;;;3.45;;
35907;SDS011;22003;50.320;8.054;2023-05-07T06:39:31;5.95;;;3.47;;
35907;SDS011;22003;50.320;8.054;2023-05-07T06:41:57;9.75;;;3.50;;
35907;SDS011;22003;50.320;8.054;2023-05-07T06:44:23;8.27;;;3.30;;
35907;SDS011;22003;50.320;8.054;2023-05-07T06:46:48;5.10;;;3.22;;
35907;SDS011;22003;50.320;8.054;2023-05-07T06:49:14;5.25;;;3.20;;
35907;SDS011;22003;50.320;8.054;2023-05-07T06:51:39;4.22;;;3.00;;
35907;SDS011;22003;50.320;8.054;2023-05-07T06:54:04;4.30;;;2.97;;
35907;SDS011;22003;50.320;8.054;2023-05-07T06:56:30;5.15;;;2.97;;
35907;SDS011;22003;50.320;8.054;2023-05-07T06:58:56;7.55;;;3.53;;
35907;SDS011;22003;50.320;8.054;2023-05-07T07:01:21;4.13;;;2.90;;
35907;SDS011;22003;50.320;8.054;2023-05-07T07:03:46;5.35;;;2.97;;
35907;SDS011;22003;50.320;8.054;2023-05-07T07:06:12;5.78;;;3.00;;
35907;SDS011;22003;50.320;8.054;2023-05-07T07:08:37;6.05;;;3.17;;
35907;SDS011;22003;50.320;8.054;2023-05-07T07:11:03;3.53;;;2.95;;
35907;SDS011;22003;50.320;8.054;2023-05-07T07:13:29;3.88;;;3.17;;
35907;SDS011;22003;50.320;8.054;2023-05-07T07:15:54;5.28;;;2.40;;
35907;SDS011;22003;50.320;8.054;2023-05-07T07:18:19;7.10;;;3.55;;
35907;SDS011;22003;50.320;8.054;2023-05-07T07:20:45;5.22;;;3.00;;
35907;SDS011;22003;50.320;8.054;2023-05-07T07:23:10;5.03;;;2.85;;
35907;SDS011;22003;50.320;8.054;2023-05-07T07:25:35;4.05;;;3.20;;
35907;SDS011;22003;50.320;8.054;2023-05-07T07:28:01;5.43;;;3.50;;
35907;SDS011;22003;50.320;8.054;2023-05-07T07:30:26;4.53;;;3.60;;
35907;SDS011;22003;50.320;8.054;2023-05-07T07:32:51;3.95;;;3.35;;
35907;SDS011;22003;50.320;8.054;2023-05-07T07:35:17;8.60;;;3.30;;
35907;SDS011;22003;50.320;8.054;2023-05-07T07:37:42;5.45;;;3.20;;
35907;SDS011;22003;50.320;8.054;2023-05-07T07:40:08;3.15;;;2.85;;
35907;SDS011;22003;50.320;8.054;2023-05-07T07:42:34;4.65;;;3.40;;
35907;SDS011;22003;50.320;8.054;2023-05-07T07:44:59;5.20;;;3.13;;
35907;SDS011;22003;50.320;8.054;2023-05-07T07:47:24;4.28;;;3.47;;
35907;SDS011;22003;50.320;8.054;2023-05-07T07:49:50;6.05;;;3.33;;
35907;SDS011;22003;50.320;8.054;2023-05-07T07:52:15;5.68;;;3.30;;
35907;SDS011;22003;50.320;8.054;2023-05-07T07:54:40;6.38;;;3.88;;
35907;SDS011;22003;50.320;8.054;2023-05-07T07:57:05;4.97;;;4.47;;
35907;SDS011;22003;50.320;8.054;2023-05-07T07:59:31;5.10;;;3.85;;
35907;SDS011;22003;50.320;8.054;2023-05-07T08:01:56;5.75;;;4.00;;
35907;SDS011;22003;50.320;8.054;2023-05-07T08:04:22;5.43;;;4.35;;
35907;SDS011;22003;50.320;8.054;2023-05-07T08:06:47;5.70;;;4.50;;
35907;SDS011;22003;50.320;8.054;2023-05-07T08:09:12;5.00;;;4.28;;
35907;SDS011;22003;50.320;8.054;2023-05-07T08:11:38;6.75;;;4.50;;
35907;SDS011;22003;50.320;8.054;2023-05-07T08:14:03;6.35;;;4.70;;
35907;SDS011;22003;50.320;8.054;2023-05-07T08:16:29;6.03;;;4.22;;
35907;SDS011;22003;50.320;8.054;2023-05-07T08:18:54;5.07;;;4.45;;
35907;SDS011;22003;50.320;8.054;2023-05-07T08:21:19;5.13;;;3.90;;
35907;SDS011;22003;50.320;8.054;2023-05-07T08:23:45;8.48;;;5.20;;
35907;SDS011;22003;50.320;8.054;2023-05-07T08:26:10;9.23;;;4.78;;
35907;SDS011;22003;50.320;8.054;2023-05-07T08:28:35;6.18;;;5.18;;
35907;SDS011;22003;50.320;8.054;2023-05-07T08:31:01;6.90;;;4.35;;
35907;SDS011;22003;50.320;8.054;2023-05-07T08:33:26;7.25;;;4.22;;
35907;SDS011;22003;50.320;8.054;2023-05-07T08:35:51;6.63;;;5.03;;
35907;SDS011;22003;50.320;8.054;2023-05-07T08:38:17;7.10;;;5.28;;
35907;SDS011;22003;50.320;8.054;2023-05-07T08:40:42;5.93;;;4.60;;
35907;SDS011;22003;50.320;8.054;2023-05-07T08:43:07;4.97;;;4.47;;
35907;SDS011;22003;50.320;8.054;2023-05-07T08:45:33;5.85;;;5.25;;
35907;SDS011;22003;50.320;8.054;2023-05-07T08:47:59;6.15;;;4.70;;
35907;SDS011;22003;50.320;8.054;2023-05-07T08:50:27;5.65;;;3.75;;
35907;SDS011;22003;50.320;8.054;2023-05-07T08:52:53;6.05;;;4.90;;
35907;SDS011;22003;50.320;8.054;2023-05-07T08:55:18;9.45;;;4.65;;
35907;SDS011;22003;50.320;8.054;2023-05-07T08:57:44;5.72;;;4.68;;
35907;SDS011;22003;50.320;8.054;2023-05-07T09:00:10;6.20;;;4.10;;
35907;SDS011;22003;50.320;8.054;2023-05-07T09:02:36;6.53;;;4.50;;
35907;SDS011;22003;50.320;8.054;2023-05-07T09:05:01;5.93;;;4.93;;
35907;SDS011;22003;50.320;8.054;2023-05-07T09:07:27;5.85;;;4.68;;
35907;SDS011;22003;50.320;8.054;2023-05-07T09:09:53;7.57;;;4.25;;
35907;SDS011;22003;50.320;8.054;2023-05-07T09:12:20;5.22;;;4.68;;
35907;SDS011;22003;50.320;8.054;2023-05-07T09:14:46;5.85;;;4.50;;
35907;SDS011;22003;50.320;8.054;2023-05-07T09:17:12;5.65;;;4.75;;
35907;SDS011;22003;50.320;8.054;2023-05-07T09:19:37;6.43;;;4.45;;
35907;SDS011;22003;50.320;8.054;2023-05-07T09:22:03;7.35;;;5.28;;
35907;SDS011;22003;50.320;8.054;2023-05-07T09:24:29;8.60;;;5.60;;
35907;SDS011;22003;50.320;8.054;2023-05-07T09:26:59;8.93;;;4.90;;
35907;SDS011;22003;50.320;8.054;2023-05-07T09:29:28;6.90;;;5.15;;
35907;SDS011;22003;50.320;8.054;2023-05-07T09:31:55;7.93;;;5.93;;
35907;SDS011;22003;50.320;8.054;2023-05-07T09:34:20;6.70;;;5.20;;
35907;SDS011;22003;50.320;8.054;2023-05-07T09:36:46;8.82;;;5.70;;
35907;SDS011;22003;50.320;8.054;2023-05-07T09:39:12;9.25;;;5.57;;
35907;SDS011;22003;50.320;8.054;2023-05-07T09:41:44;9.73;;;5.28;;
35907;SDS011;22003;50.320;8.054;2023-05-07T09:44:11;9.15;;;5.55;;
35907;SDS011;22003;50.320;8.054;2023-05-07T09:46:38;8.43;;;6.00;;
35907;SDS011;22003;50.320;8.054;2023-05-07T09:49:06;8.23;;;5.80;;
35907;SDS011;22003;50.320;8.054;2023-05-07T09:51:43;7.32;;;5.80;;
35907;SDS011;22003;50.320;8.054;2023-05-07T09:54:13;9.55;;;5.55;;
35907;SDS011;22003;50.320;8.054;2023-05-07T09:56:38;8.60;;;5.47;;
35907;SDS011;22003;50.320;8.054;2023-05-07T10:01:31;9.95;;;6.75;;
35907;SDS011;22003;50.320;8.054;2023-05-07T10:03:58;10.27;;;5.90;;
35907;SDS011;22003;50.320;8.054;2023-05-07T10:06:24;6.53;;;5.55;;
35907;SDS011;22003;50.320;8.054;2023-05-07T10:08:53;6.55;;;5.15;;
35907;SDS011;22003;50.320;8.054;2023-05-07T10:11:19;9.00;;;5.10;;
35907;SDS011;22003;50.320;8.054;2023-05-07T10:13:46;6.32;;;5.70;;
35907;SDS011;22003;50.320;8.054;2023-05-07T10:16:13;6.53;;;5.20;;
35907;SDS011;22003;50.320;8.054;2023-05-07T10:18:39;7.93;;;5.35;;
35907;SDS011;22003;50.320;8.054;2023-05-07T10:21:16;7.63;;;5.32;;
35907;SDS011;22003;50.320;8.054;2023-05-07T10:23:48;8.70;;;5.87;;
35907;SDS011;22003;50.320;8.054;2023-05-07T10:26:14;7.38;;;5.40;;
35907;SDS011;22003;50.320;8.054;2023-05-07T10:28:41;9.20;;;5.22;;
35907;SDS011;22003;50.320;8.054;2023-05-07T10:31:15;6.35;;;5.70;;
35907;SDS011;22003;50.320;8.054;2023-05-07T10:34:02;6.43;;;5.75;;
35907;SDS011;22003;50.320;8.054;2023-05-07T10:36:34;6.72;;;5.30;;
35907;SDS011;22003;50.320;8.054;2023-05-07T10:39:00;6.93;;;5.40;;
35907;SDS011;22003;50.320;8.054;2023-05-07T10:41:26;6.72;;;4.82;;
35907;SDS011;22003;50.320;8.054;2023-05-07T10:43:51;10.02;;;5.32;;
35907;SDS011;22003;50.320;8.054;2023-05-07T10:49:27;6.53;;;5.57;;
35907;SDS011;22003;50.320;8.054;2023-05-07T10:51:33;6.88;;;5.07;;
35907;SDS011;22003;50.320;8.054;2023-05-07T11:01:56;3.45;;;3.15;;
35907;SDS011;22003;50.320;8.054;2023-05-07T11:04:27;3.90;;;3.50;;
35907;SDS011;22003;50.320;8.054;2023-05-07T11:12:17;4.65;;;4.10;;
35907;SDS011;22003;50.320;8.054;2023-05-07T11:15:03;7.35;;;5.20;;
35907;SDS011;22003;50.320;8.054;2023-05-07T11:19:56;6.22;;;4.82;;
35907;SDS011;22003;50.320;8.054;2023-05-07T11:22:36;8.63;;;4.85;;
35907;SDS011;22003;50.320;8.054;2023-05-07T11:25:04;7.20;;;6.50;;
35907;SDS011;22003;50.320;8.054;2023-05-07T11:27:31;6.53;;;5.45;;
35907;SDS011;22003;50.320;8.054;2023-05-07T11:29:56;7.72;;;5.75;;
35907;SDS011;22003;50.320;8.054;2023-05-07T11:32:25;8.05;;;6.15;;
35907;SDS011;22003;50.320;8.054;2023-05-07T11:34:52;5.65;;;4.95;;
35907;SDS011;22003;50.320;8.054;2023-05-07T11:37:18;5.68;;;4.38;;
35907;SDS011;22003;50.320;8.054;2023-05-07T11:39:44;4.38;;;2.63;;
35907;SDS011;22003;50.320;8.054;2023-05-07T11:44:55;2.72;;;2.53;;
35907;SDS011;22003;50.320;8.054;2023-05-07T11:47:20;2.83;;;2.53;;
35907;SDS011;22003;50.320;8.054;2023-05-07T11:49:50;4.38;;;2.50;;
35907;SDS011;22003;50.320;8.054;2023-05-07T11:52:17;4.57;;;2.42;;
35907;SDS011;22003;50.320;8.054;2023-05-07T11:54:49;3.83;;;2.40;;
35907;SDS011;22003;50.320;8.054;2023-05-07T11:57:15;2.95;;;2.38;;
35907;SDS011;22003;50.320;8.054;2023-05-07T11:59:40;3.28;;;2.25;;
35907;SDS011;22003;50.320;8.054;2023-05-07T12:02:06;2.38;;;2.17;;
35907;SDS011;22003;50.320;8.054;2023-05-07T12:04:32;3.05;;;2.58;;
35907;SDS011;22003;50.320;8.054;2023-05-07T12:06:58;4.47;;;2.70;;
35907;SDS011;22003;50.320;8.054;2023-05-07T12:09:23;4.22;;;2.72;;
35907;SDS011;22003;50.320;8.054;2023-05-07T12:11:48;3.55;;;2.05;;
35907;SDS011;22003;50.320;8.054;2023-05-07T12:14:14;2.47;;;1.95;;
35907;SDS011;22003;50.320;8.054;2023-05-07T12:16:40;2.95;;;2.20;;
35907;SDS011;22003;50.320;8.054;2023-05-07T12:19:06;2.97;;;2.40;;
35907;SDS011;22003;50.320;8.054;2023-05-07T12:21:33;2.92;;;2.45;;
35907;SDS011;22003;50.320;8.054;2023-05-07T12:24:00;1.92;;;1.83;;
35907;SDS011;22003;50.320;8.054;2023-05-07T12:26:26;2.88;;;2.00;;
35907;SDS011;22003;50.320;8.054;2023-05-07T12:28:51;2.25;;;2.05;;
35907;SDS011;22003;50.320;8.054;2023-05-07T12:31:16;2.60;;;2.33;;
35907;SDS011;22003;50.320;8.054;2023-05-07T12:33:42;3.65;;;2.53;;
35907;SDS011;22003;50.320;8.054;2023-05-07T12:36:07;3.50;;;2.53;;
35907;SDS011;22003;50.320;8.054;2023-05-07T12:38:36;2.47;;;2.25;;
35907;SDS011;22003;50.320;8.054;2023-05-07T12:41:03;3.50;;;2.50;;
35907;SDS011;22003;50.320;8.054;2023-05-07T12:43:29;3.05;;;2.50;;
35907;SDS011;22003;50.320;8.054;2023-05-07T12:45:55;3.28;;;2.47;;
35907;SDS011;22003;50.320;8.054;2023-05-07T12:50:51;2.78;;;1.95;;
35907;SDS011;22003;50.320;8.054;2023-05-07T12:53:19;3.63;;;2.50;;
35907;SDS011;22003;50.320;8.054;2023-05-07T12:55:47;5.07;;;2.70;;
35907;SDS011;22003;50.320;8.054;2023-05-07T12:58:15;2.08;;;1.90;;
35907;SDS011;22003;50.320;8.054;2023-05-07T13:03:08;2.88;;;2.53;;
35907;SDS011;22003;50.320;8.054;2023-05-07T13:05:34;4.07;;;2.42;;
35907;SDS011;22003;50.320;8.054;2023-05-07T13:07:59;3.45;;;2.65;;
35907;SDS011;22003;50.320;8.054;2023-05-07T13:10:25;2.38;;;2.17;;
35907;SDS011;22003;50.320;8.054;2023-05-07T13:12:51;4.28;;;2.60;;
35907;SDS011;22003;50.320;8.054;2023-05-07T13:15:17;3.05;;;2.28;;
35907;SDS011;22003;50.320;8.054;2023-05-07T13:17:43;5.10;;;2.20;;
35907;SDS011;22003;50.320;8.054;2023-05-07T13:20:09;4.45;;;2.17;;
35907;SDS011;22003;50.320;8.054;2023-05-07T13:22:35;2.90;;;2.42;;
35907;SDS011;22003;50.320;8.054;2023-05-07T13:25:00;3.40;;;2.38;;
35907;SDS011;22003;50.320;8.054;2023-05-07T13:27:26;4.15;;;2.60;;
35907;SDS011;22003;50.320;8.054;2023-05-07T13:29:51;3.05;;;2.75;;
35907;SDS011;22003;50.320;8.054;2023-05-07T13:32:16;4.55;;;2.80;;
35907;SDS011;22003;50.320;8.054;2023-05-07T13:34:42;2.83;;;2.58;;
35907;SDS011;22003;50.320;8.054;2023-05-07T13:37:07;4.20;;;2.70;;
35907;SDS011;22003;50.320;8.054;2023-05-07T13:39:32;2.88;;;2.42;;
35907;SDS011;22003;50.320;8.054;2023-05-07T13:41:58;4.97;;;2.78;;
35907;SDS011;22003;50.320;8.054;2023-05-07T13:44:23;3.03;;;2.50;;
35907;SDS011;22003;50.320;8.054;2023-05-07T13:46:48;2.78;;;2.53;;
35907;SDS011;22003;50.320;8.054;2023-05-07T13:49:13;3.72;;;2.55;;
35907;SDS011;22003;50.320;8.054;2023-05-07T13:51:39;3.53;;;2.30;;
35907;SDS011;22003;50.320;8.054;2023-05-07T13:54:04;3.67;;;2.45;;
35907;SDS011;22003;50.320;8.054;2023-05-07T13:56:29;3.03;;;2.72;;
35907;SDS011;22003;50.320;8.054;2023-05-07T13:58:57;2.25;;;2.05;;
35907;SDS011;22003;50.320;8.054;2023-05-07T14:01:22;4.03;;;2.83;;
35907;SDS011;22003;50.320;8.054;2023-05-07T14:03:47;3.08;;;2.70;;
35907;SDS011;22003;50.320;8.054;2023-05-07T14:06:12;2.55;;;2.20;;
35907;SDS011;22003;50.320;8.054;2023-05-07T14:08:38;2.58;;;2.05;;
35907;SDS011;22003;50.320;8.054;2023-05-07T14:11:03;2.70;;;2.38;;
35907;SDS011;22003;50.320;8.054;2023-05-07T14:13:28;2.20;;;2.00;;
35907;SDS011;22003;50.320;8.054;2023-05-07T14:15:57;2.92;;;2.30;;
35907;SDS011;22003;50.320;8.054;2023-05-07T14:18:23;2.38;;;2.10;;
35907;SDS011;22003;50.320;8.054;2023-05-07T14:20:48;3.38;;;2.35;;
35907;SDS011;22003;50.320;8.054;2023-05-07T14:23:14;2.83;;;2.60;;
35907;SDS011;22003;50.320;8.054;2023-05-07T14:25:40;2.90;;;2.60;;
35907;SDS011;22003;50.320;8.054;2023-05-07T14:28:06;6.35;;;3.20;;
35907;SDS011;22003;50.320;8.054;2023-05-07T14:30:31;6.00;;;2.80;;
35907;SDS011;22003;50.320;8.054;2023-05-07T14:32:56;4.57;;;2.90;;
35907;SDS011;22003;50.320;8.054;2023-05-07T14:35:21;3.05;;;2.78;;
35907;SDS011;22003;50.320;8.054;2023-05-07T14:37:47;2.67;;;2.47;;
35907;SDS011;22003;50.320;8.054;2023-05-07T14:40:12;3.55;;;3.22;;
35907;SDS011;22003;50.320;8.054;2023-05-07T14:42:38;3.65;;;3.10;;
35907;SDS011;22003;50.320;8.054;2023-05-07T14:45:03;3.33;;;3.03;;
35907;SDS011;22003;50.320;8.054;2023-05-07T14:47:29;4.80;;;3.10;;
35907;SDS011;22003;50.320;8.054;2023-05-07T14:49:54;3.58;;;2.85;;
35907;SDS011;22003;50.320;8.054;2023-05-07T14:52:21;3.43;;;3.13;;
35907;SDS011;22003;50.320;8.054;2023-05-07T14:54:46;3.15;;;2.90;;
35907;SDS011;22003;50.320;8.054;2023-05-07T14:57:12;3.58;;;3.28;;
35907;SDS011;22003;50.320;8.054;2023-05-07T14:59:41;3.50;;;3.15;;
35907;SDS011;22003;50.320;8.054;2023-05-07T15:02:06;4.80;;;3.22;;
35907;SDS011;22003;50.320;8.054;2023-05-07T15:04:33;3.92;;;2.80;;
35907;SDS011;22003;50.320;8.054;2023-05-07T15:06:58;2.72;;;2.38;;
35907;SDS011;22003;50.320;8.054;2023-05-07T15:09:24;3.45;;;2.95;;
35907;SDS011;22003;50.320;8.054;2023-05-07T15:11:50;3.75;;;3.00;;
35907;SDS011;22003;50.320;8.054;2023-05-07T15:14:15;4.18;;;2.85;;
35907;SDS011;22003;50.320;8.054;2023-05-07T15:16:40;3.15;;;2.63;;
35907;SDS011;22003;50.320;8.054;2023-05-07T15:19:06;3.47;;;3.17;;
35907;SDS011;22003;50.320;8.054;2023-05-07T15:21:31;3.20;;;2.90;;
35907;SDS011;22003;50.320;8.054;2023-05-07T15:23:59;3.60;;;3.25;;
35907;SDS011;22003;50.320;8.054;2023-05-07T15:26:24;3.00;;;2.78;;
35907;SDS011;22003;50.320;8.054;2023-05-07T15:28:49;2.97;;;2.47;;
35907;SDS011;22003;50.320;8.054;2023-05-07T15:31:15;2.65;;;2.45;;
35907;SDS011;22003;50.320;8.054;2023-05-07T15:33:41;3.25;;;2.90;;
35907;SDS011;22003;50.320;8.054;2023-05-07T15:36:06;2.95;;;2.58;;
35907;SDS011;22003;50.320;8.054;2023-05-07T15:38:31;2.67;;;2.30;;
35907;SDS011;22003;50.320;8.054;2023-05-07T15:40:57;3.72;;;2.83;;
35907;SDS011;22003;50.320;8.054;2023-05-07T15:43:22;3.10;;;2.80;;
35907;SDS011;22003;50.320;8.054;2023-05-07T15:45:47;3.45;;;2.88;;
35907;SDS011;22003;50.320;8.054;2023-05-07T15:48:12;3.83;;;3.10;;
35907;SDS011;22003;50.320;8.054;2023-05-07T15:50:38;4.68;;;3.20;;
35907;SDS011;22003;50.320;8.054;2023-05-07T15:53:03;3.40;;;3.10;;
35907;SDS011;22003;50.320;8.054;2023-05-07T15:55:29;5.40;;;3.22;;
35907;SDS011;22003;50.320;8.054;2023-05-07T15:57:56;2.73;;;2.53;;
35907;SDS011;22003;50.320;8.054;2023-05-07T16:00:22;3.53;;;2.70;;
35907;SDS011;22003;50.320;8.054;2023-05-07T16:02:47;3.58;;;3.20;;
35907;SDS011;22003;50.320;8.054;2023-05-07T16:05:12;4.50;;;3.80;;
35907;SDS011;22003;50.320;8.054;2023-05-07T16:07:38;3.28;;;2.97;;
35907;SDS011;22003;50.320;8.054;2023-05-07T16:10:05;3.90;;;2.95;;
35907;SDS011;22003;50.320;8.054;2023-05-07T16:12:31;4.47;;;3.20;;
35907;SDS011;22003;50.320;8.054;2023-05-07T16:14:57;5.32;;;3.38;;
35907;SDS011;22003;50.320;8.054;2023-05-07T16:17:22;4.60;;;3.70;;
35907;SDS011;22003;50.320;8.054;2023-05-07T16:19:48;5.13;;;3.60;;
35907;SDS011;22003;50.320;8.054;2023-05-07T16:22:17;5.43;;;3.03;;
35907;SDS011;22003;50.320;8.054;2023-05-07T16:24:43;2.80;;;2.60;;
35907;SDS011;22003;50.320;8.054;2023-05-07T16:27:08;3.05;;;2.78;;
35907;SDS011;22003;50.320;8.054;2023-05-07T16:29:33;5.80;;;3.13;;
35907;SDS011;22003;50.320;8.054;2023-05-07T16:31:59;5.38;;;3.42;;
35907;SDS011;22003;50.320;8.054;2023-05-07T16:34:24;3.47;;;2.80;;
35907;SDS011;22003;50.320;8.054;2023-05-07T16:36:49;5.15;;;2.50;;
35907;SDS011;22003;50.320;8.054;2023-05-07T16:39:15;3.30;;;3.00;;
35907;SDS011;22003;50.320;8.054;2023-05-07T16:41:41;3.83;;;2.92;;
35907;SDS011;22003;50.320;8.054;2023-05-07T16:44:07;3.45;;;2.50;;
35907;SDS011;22003;50.320;8.054;2023-05-07T16:46:33;2.80;;;2.50;;
35907;SDS011;22003;50.320;8.054;2023-05-07T16:48:59;4.20;;;2.45;;
35907;SDS011;22003;50.320;8.054;2023-05-07T16:51:24;3.22;;;2.40;;
35907;SDS011;22003;50.320;8.054;2023-05-07T16:53:49;8.10;;;2.92;;
35907;SDS011;22003;50.320;8.054;2023-05-07T16:56:15;2.72;;;2.38;;
35907;SDS011;22003;50.320;8.054;2023-05-07T16:58:40;3.63;;;2.55;;
35907;SDS011;22003;50.320;8.054;2023-05-07T17:01:06;3.05;;;2.47;;
35907;SDS011;22003;50.320;8.054;2023-05-07T17:03:31;2.58;;;2.30;;
35907;SDS011;22003;50.320;8.054;2023-05-07T17:05:56;5.45;;;2.85;;
35907;SDS011;22003;50.320;8.054;2023-05-07T17:08:22;10.38;;;6.80;;
35907;SDS011;22003;50.320;8.054;2023-05-07T17:10:47;8.43;;;3.70;;
35907;SDS011;22003;50.320;8.054;2023-05-07T17:13:12;6.07;;;3.60;;
35907;SDS011;22003;50.320;8.054;2023-05-07T17:15:38;15.23;;;6.78;;
35907;SDS011;22003;50.320;8.054;2023-05-07T17:18:05;23.80;;;7.70;;
35907;SDS011;22003;50.320;8.054;2023-05-07T17:20:30;11.43;;;7.25;;
35907;SDS011;22003;50.320;8.054;2023-05-07T17:22:55;5.13;;;3.72;;
35907;SDS011;22003;50.320;8.054;2023-05-07T17:25:21;4.70;;;3.40;;
35907;SDS011;22003;50.320;8.054;2023-05-07T17:27:47;3.47;;;2.80;;
35907;SDS011;22003;50.320;8.054;2023-05-07T17:30:13;2.92;;;2.60;;
35907;SDS011;22003;50.320;8.054;2023-05-07T17:32:39;5.40;;;2.70;;
35907;SDS011;22003;50.320;8.054;2023-05-07T17:35:05;3.90;;;3.10;;
35907;SDS011;22003;50.320;8.054;2023-05-07T17:37:30;5.15;;;2.60;;
35907;SDS011;22003;50.320;8.054;2023-05-07T17:39:55;4.15;;;3.10;;
35907;SDS011;22003;50.320;8.054;2023-05-07T17:42:21;3.17;;;2.88;;
35907;SDS011;22003;50.320;8.054;2023-05-07T17:44:46;4.28;;;3.03;;
35907;SDS011;22003;50.320;8.054;2023-05-07T17:47:11;4.88;;;3.00;;
35907;SDS011;22003;50.320;8.054;2023-05-07T17:49:38;4.35;;;3.17;;
35907;SDS011;22003;50.320;8.054;2023-05-07T17:52:03;4.57;;;3.03;;
35907;SDS011;22003;50.320;8.054;2023-05-07T17:54:28;4.97;;;3.50;;
35907;SDS011;22003;50.320;8.054;2023-05-07T17:56:54;4.45;;;3.42;;
35907;SDS011;22003;50.320;8.054;2023-05-07T17:59:19;6.90;;;3.53;;
35907;SDS011;22003;50.320;8.054;2023-05-07T18:01:45;3.80;;;3.40;;
35907;SDS011;22003;50.320;8.054;2023-05-07T18:04:10;4.22;;;3.78;;
35907;SDS011;22003;50.320;8.054;2023-05-07T18:06:35;4.32;;;3.55;;
35907;SDS011;22003;50.320;8.054;2023-05-07T18:09:00;5.43;;;3.67;;
35907;SDS011;22003;50.320;8.054;2023-05-07T18:11:26;4.82;;;3.17;;
35907;SDS011;22003;50.320;8.054;2023-05-07T18:13:52;4.00;;;3.20;;
35907;SDS011;22003;50.320;8.054;2023-05-07T18:16:17;7.32;;;3.10;;
35907;SDS011;22003;50.320;8.054;2023-05-07T18:18:43;7.20;;;3.78;;
35907;SDS011;22003;50.320;8.054;2023-05-07T18:21:10;7.30;;;3.50;;
35907;SDS011;22003;50.320;8.054;2023-05-07T18:23:42;8.30;;;4.07;;
35907;SDS011;22003;50.320;8.054;2023-05-07T18:26:09;5.72;;;4.13;;
35907;SDS011;22003;50.320;8.054;2023-05-07T18:28:34;9.15;;;4.88;;
35907;SDS011;22003;50.320;8.054;2023-05-07T18:30:59;6.72;;;3.92;;
35907;SDS011;22003;50.320;8.054;2023-05-07T18:33:24;7.05;;;4.65;;
35907;SDS011;22003;50.320;8.054;2023-05-07T18:35:50;7.68;;;3.78;;
35907;SDS011;22003;50.320;8.054;2023-05-07T18:38:15;6.07;;;3.22;;
35907;SDS011;22003;50.320;8.054;2023-05-07T18:40:40;5.00;;;2.78;;
35907;SDS011;22003;50.320;8.054;2023-05-07T18:43:08;4.80;;;3.10;;
35907;SDS011;22003;50.320;8.054;2023-05-07T18:45:33;6.68;;;4.03;;
35907;SDS011;22003;50.320;8.054;2023-05-07T18:47:59;8.60;;;3.67;;
35907;SDS011;22003;50.320;8.054;2023-05-07T18:50:24;8.57;;;3.90;;
35907;SDS011;22003;50.320;8.054;2023-05-07T18:52:50;4.82;;;3.10;;
35907;SDS011;22003;50.320;8.054;2023-05-07T18:55:15;6.07;;;3.25;;
35907;SDS011;22003;50.320;8.054;2023-05-07T18:57:41;4.47;;;2.75;;
35907;SDS011;22003;50.320;8.054;2023-05-07T19:00:08;7.75;;;2.70;;
35907;SDS011;22003;50.320;8.054;2023-05-07T19:02:35;7.67;;;2.87;;
35907;SDS011;22003;50.320;8.054;2023-05-07T19:05:00;2.80;;;2.22;;
35907;SDS011;22003;50.320;8.054;2023-05-07T19:07:26;4.10;;;2.75;;
35907;SDS011;22003;50.320;8.054;2023-05-07T19:09:51;4.05;;;2.10;;
35907;SDS011;22003;50.320;8.054;2023-05-07T19:12:16;4.43;;;2.78;;